Time;durP1;ratioP1;P1;durP2;ratioP2;P2;SDS_P1;SDS_P2;PMS_P1;PMS_P2;Temp;Humidity;BMP_temperature;BMP_pressure;BME280_temperature;BME280_humidity;BME280_pressure;Samples;Min_cycle;Max_cycle;Signal;HPM_P1;HPM_P2
2023/06/08 00:00:58;;;;;;;3.92;2.67;;;13.90;99.90;;;;;;4936702;29;20118;-78
2023/06/08 00:03:26;;;;;;;4.18;2.15;;;14.00;99.90;;;;;;4952361;29;20358;-80
2023/06/08 00:05:52;;;;;;;6.47;2.97;;;14.00;99.90;;;;;;4959044;29;20023;-80
2023/06/08 00:08:18;;;;;;;3.17;2.70;;;14.10;99.90;;;;;;4955857;29;20035;-79
2023/06/08 00:10:46;;;;;;;2.53;2.33;;;14.00;99.90;;;;;;4952873;29;20653;-79
2023/06/08 00:13:12;;;;;;;2.53;2.33;;;14.00;99.90;;;;;;4959536;28;20051;-80
2023/06/08 00:15:39;;;;;;;4.07;2.63;;;14.00;99.90;;;;;;4957867;29;20023;-79
2023/06/08 00:18:08;;;;;;;2.42;2.22;;;14.00;99.90;;;;;;4956688;29;20066;-80
2023/06/08 00:20:34;;;;;;;3.28;3.03;;;;;;;;;;4957838;28;20121;-82
2023/06/08 00:23:03;;;;;;;3.47;2.80;;;13.90;99.90;;;;;;4954354;29;20050;-80
2023/06/08 00:25:29;;;;;;;3.17;2.60;;;13.90;99.90;;;;;;4956242;29;20086;-79
2023/06/08 00:27:55;;;;;;;3.08;2.20;;;13.90;99.90;;;;;;4953075;29;20133;-79
2023/06/08 00:30:20;;;;;;;2.70;2.40;;;14.00;99.90;;;;;;4952400;29;20028;-79
2023/06/08 00:32:49;;;;;;;3.28;2.65;;;14.00;99.90;;;;;;4942517;29;20023;-81
2023/06/08 00:35:14;;;;;;;4.70;2.95;;;14.00;99.90;;;;;;4958355;28;20031;-79
2023/06/08 00:37:42;;;;;;;4.13;2.58;;;14.10;99.90;;;;;;4957993;29;20031;-79
2023/06/08 00:40:08;;;;;;;2.33;2.13;;;;;;;;;;4956707;28;20031;-80
2023/06/08 00:42:34;;;;;;;3.33;2.63;;;14.20;99.90;;;;;;4956413;29;20432;-78
2023/06/08 00:45:02;;;;;;;4.28;2.67;;;14.20;99.90;;;;;;4943284;29;20027;-81
2023/06/08 00:47:28;;;;;;;7.97;2.53;;;14.20;99.90;;;;;;4965396;29;20039;-80
2023/06/08 00:49:54;;;;;;;10.18;2.97;;;14.20;99.90;;;;;;4962220;29;20040;-79
2023/06/08 00:52:21;;;;;;;2.47;2.22;;;14.30;99.90;;;;;;4957372;29;20034;-80
2023/06/08 00:54:51;;;;;;;4.43;2.45;;;14.30;99.90;;;;;;4959563;29;20103;-79
2023/06/08 00:57:19;;;;;;;2.78;2.40;;;14.30;99.90;;;;;;4958364;29;20027;-78
2023/06/08 00:59:49;;;;;;;4.53;2.50;;;14.30;99.90;;;;;;4961032;29;20027;-80
2023/06/08 01:02:16;;;;;;;;;;;14.30;99.90;;;;;;4966267;29;20047;-80
2023/06/08 01:04:43;;;;;;;2.63;2.05;;;14.30;99.90;;;;;;4960337;29;19912;-80
2023/06/08 01:07:30;;;;;;;2.63;2.33;;;14.30;99.90;;;;;;4957106;29;20067;-80
2023/06/08 01:10:00;;;;;;;4.30;2.60;;;14.30;99.90;;;;;;4961255;29;20036;-79
2023/06/08 01:12:33;;;;;;;6.35;2.80;;;14.30;99.90;;;;;;4959584;29;20463;-79
2023/06/08 01:15:25;;;;;;;3.47;2.70;;;14.30;99.90;;;;;;4961137;29;20023;-79
2023/06/08 01:17:57;;;;;;;2.72;2.20;;;14.20;99.90;;;;;;4957638;29;20484;-79
2023/06/08 01:20:38;;;;;;;4.38;2.45;;;14.20;99.90;;;;;;4956059;28;20408;-80
2023/06/08 01:23:22;;;;;;;2.60;2.40;;;14.20;99.90;;;;;;4967420;29;20043;-82
2023/06/08 01:25:52;;;;;;;3.83;2.75;;;14.20;99.90;;;;;;4961331;29;20038;-79
2023/06/08 01:28:17;;;;;;;4.05;2.35;;;14.10;99.90;;;;;;4958254;29;20063;-80
2023/06/08 01:30:46;;;;;;;3.10;2.53;;;14.10;99.90;;;;;;4956723;29;20066;-79
2023/06/08 01:33:31;;;;;;;2.83;2.50;;;14.10;99.90;;;;;;4956060;29;20031;-80
2023/06/08 01:36:03;;;;;;;4.72;2.72;;;14.00;99.90;;;;;;4956663;29;20039;-79
2023/06/08 01:38:39;;;;;;;2.63;2.40;;;13.90;99.90;;;;;;4956944;29;20019;-79
2023/06/08 01:41:11;;;;;;;3.35;3.05;;;13.90;99.90;;;;;;4963515;29;20024;-82
2023/06/08 01:43:41;;;;;;;3.15;2.50;;;14.00;99.90;;;;;;4971170;28;20023;-81
2023/06/08 01:46:11;;;;;;;3.17;2.85;;;14.00;99.90;;;;;;4975844;28;20027;-81
2023/06/08 01:48:40;;;;;;;8.50;3.35;;;13.90;99.90;;;;;;4974395;29;20063;-82
2023/06/08 01:51:07;;;;;;;2.65;2.42;;;14.00;99.90;;;;;;4969922;29;20031;-80
2023/06/08 01:53:34;;;;;;;3.03;2.75;;;14.00;99.90;;;;;;4962531;28;20131;-81
2023/06/08 01:56:00;;;;;;;2.90;2.70;;;14.00;99.90;;;;;;4959955;29;20047;-80
2023/06/08 01:58:26;;;;;;;3.42;2.83;;;;;;;;;;4972232;29;20047;-82
2023/06/08 02:00:52;;;;;;;4.05;2.90;;;14.00;99.90;;;;;;4968602;29;20015;-79
2023/06/08 02:03:19;;;;;;;3.70;3.33;;;14.00;99.90;;;;;;4972006;29;20051;-82
2023/06/08 02:05:45;;;;;;;3.72;2.75;;;;;;;;;;4957804;29;20035;-82
2023/06/08 02:08:30;;;;;;;2.70;2.47;;;;;;;;;;4975655;28;20027;-82
2023/06/08 02:10:56;;;;;;;4.07;2.83;;;;;;;;;;4956786;29;20035;-82
2023/06/08 02:13:21;;;;;;;9.07;3.55;;;14.10;99.90;;;;;;4965886;29;20035;-79
2023/06/08 02:15:47;;;;;;;4.05;2.90;;;14.10;99.90;;;;;;4956749;29;20443;-79
2023/06/08 02:18:13;;;;;;;8.13;2.85;;;14.20;99.90;;;;;;4942271;29;20098;-79
2023/06/08 02:20:39;;;;;;;3.33;2.63;;;14.30;99.90;;;;;;4956034;29;20031;-79
2023/06/08 02:23:04;;;;;;;7.85;3.28;;;14.40;99.90;;;;;;4957658;29;20046;-81
2023/06/08 02:25:30;;;;;;;3.13;2.83;;;14.40;99.90;;;;;;4953429;28;20035;-80
2023/06/08 02:27:55;;;;;;;3.72;3.42;;;14.50;99.90;;;;;;4964340;29;20126;-80
2023/06/08 02:30:21;;;;;;;2.63;2.40;;;14.50;99.90;;;;;;4961911;29;20038;-78
2023/06/08 02:32:47;;;;;;;4.25;3.10;;;14.70;99.90;;;;;;4939532;29;20058;-79
2023/06/08 02:35:12;;;;;;;4.60;2.88;;;14.70;99.90;;;;;;4954268;29;20031;-79
2023/06/08 02:37:38;;;;;;;3.75;3.28;;;14.90;99.90;;;;;;4962759;29;20011;-80
2023/06/08 02:40:08;;;;;;;5.68;3.22;;;14.90;99.90;;;;;;4968058;28;20039;-80
2023/06/08 02:42:42;;;;;;;3.75;3.33;;;15.00;99.90;;;;;;4974250;29;20008;-80
2023/06/08 02:45:08;;;;;;;4.50;2.83;;;15.10;99.90;;;;;;4976001;28;20031;-80
2023/06/08 02:47:33;;;;;;;3.75;3.30;;;15.10;99.90;;;;;;4977108;28;20086;-80
2023/06/08 02:49:59;;;;;;;4.13;3.17;;;15.20;99.90;;;;;;4974813;28;20066;-80
2023/06/08 02:52:25;;;;;;;7.30;3.28;;;15.10;99.90;;;;;;4961471;29;20468;-83
2023/06/08 02:54:50;;;;;;;3.00;2.75;;;15.10;99.90;;;;;;4936651;29;20524;-81
2023/06/08 02:57:16;;;;;;;3.78;3.17;;;15.10;99.90;;;;;;4957656;28;20032;-81
2023/06/08 02:59:43;;;;;;;4.30;2.97;;;14.90;99.90;;;;;;4954036;29;20066;-78
2023/06/08 03:02:29;;;;;;;3.38;3.08;;;;;;;;;;4971255;29;20016;-78
2023/06/08 03:04:58;;;;;;;5.22;3.65;;;14.80;99.90;;;;;;4974288;29;20011;-79
2023/06/08 03:07:27;;;;;;;6.82;3.72;;;14.90;99.90;;;;;;4975427;29;20050;-80
2023/06/08 03:09:52;;;;;;;5.25;3.88;;;14.90;99.90;;;;;;4975953;28;20023;-79
2023/06/08 03:12:18;;;;;;;3.53;3.22;;;15.10;99.90;;;;;;4976775;28;20008;-80
2023/06/08 03:14:44;;;;;;;4.47;3.25;;;15.10;99.90;;;;;;4976271;28;20011;-80
2023/06/08 03:17:10;;;;;;;4.05;3.65;;;15.20;99.90;;;;;;4976533;28;20018;-80
2023/06/08 03:19:36;;;;;;;7.32;4.18;;;15.20;99.90;;;;;;4959632;29;20050;-80
2023/06/08 03:22:04;;;;;;;6.38;3.42;;;15.30;99.90;;;;;;4944963;29;20067;-84
2023/06/08 03:24:31;;;;;;;10.40;5.22;;;15.30;99.90;;;;;;4973194;28;20023;-79
2023/06/08 03:26:58;;;;;;;4.82;3.53;;;;;;;;;;4954195;29;20045;-79
2023/06/08 03:29:25;;;;;;;6.95;4.70;;;15.20;99.90;;;;;;4959940;29;20480;-81
2023/06/08 03:31:51;;;;;;;4.30;3.88;;;15.20;99.90;;;;;;4956345;29;20027;-80
2023/06/08 03:34:18;;;;;;;5.28;3.92;;;15.10;99.90;;;;;;4958203;29;20031;-80
2023/06/08 03:36:44;;;;;;;7.05;4.53;;;15.10;99.90;;;;;;4958942;29;20062;-80
2023/06/08 03:39:10;;;;;;;9.07;5.10;;;15.10;99.90;;;;;;4947226;29;20075;-80
2023/06/08 03:41:36;;;;;;;7.82;3.78;;;15.20;99.90;;;;;;4948607;29;20027;-79
2023/06/08 03:44:02;;;;;;;8.88;4.20;;;;;;;;;;4968383;29;20041;-80
2023/06/08 03:46:28;;;;;;;4.80;3.92;;;15.50;99.90;;;;;;4971643;29;20099;-80
2023/06/08 03:48:54;;;;;;;9.00;3.97;;;15.50;99.90;;;;;;4962506;28;20038;-81
2023/06/08 03:51:21;;;;;;;4.93;4.30;;;15.40;99.90;;;;;;4966106;29;20026;-82
2023/06/08 03:53:55;;;;;;;6.55;3.88;;;15.40;99.90;;;;;;4956255;29;20051;-81
2023/06/08 03:56:26;;;;;;;4.72;4.25;;;15.30;99.90;;;;;;4974749;28;20027;-82
2023/06/08 03:58:57;;;;;;;4.60;3.63;;;15.40;99.90;;;;;;4976482;29;20022;-81
2023/06/08 04:01:27;;;;;;;10.88;4.95;;;15.30;99.90;;;;;;4976814;28;20036;-82
2023/06/08 04:03:52;;;;;;;6.53;3.92;;;15.30;99.90;;;;;;4975628;28;20031;-82
2023/06/08 04:06:23;;;;;;;7.25;4.53;;;;;;;;;;4976261;29;20069;-82
2023/06/08 04:08:52;;;;;;;7.72;5.45;;;15.30;99.90;;;;;;4978990;28;20066;-82
2023/06/08 04:11:18;;;;;;;6.88;4.85;;;15.50;99.90;;;;;;4948101;29;20106;-85
2023/06/08 04:13:46;;;;;;;5.45;3.90;;;15.40;99.90;;;;;;4964757;28;20035;-83
2023/06/08 04:16:13;;;;;;;4.88;4.38;;;15.40;99.90;;;;;;4979210;29;20027;-82
2023/06/08 04:18:40;;;;;;;5.88;4.30;;;15.50;99.90;;;;;;4980457;28;20020;-82
2023/06/08 04:21:06;;;;;;;4.88;3.90;;;15.50;99.90;;;;;;4958256;29;20038;-83
2023/06/08 04:23:36;;;;;;;3.92;3.47;;;15.60;99.90;;;;;;4967496;29;20027;-82
2023/06/08 04:26:16;;;;;;;;;;;15.60;99.90;;;;;;4961868;28;20034;-83
2023/06/08 04:28:42;;;;;;;4.88;3.35;;;;;;;;;;4980578;28;19910;-83
2023/06/08 04:31:08;;;;;;;3.72;3.40;;;;;;;;;;4981344;28;20023;-82
2023/06/08 04:33:34;;;;;;;6.00;4.90;;;15.70;99.90;;;;;;4979613;28;20007;-82
2023/06/08 04:36:03;;;;;;;5.15;4.15;;;15.60;99.90;;;;;;4981409;28;20035;-82
2023/06/08 04:38:29;;;;;;;5.68;4.47;;;15.60;99.90;;;;;;4981198;28;20059;-82
2023/06/08 04:40:55;;;;;;;6.80;4.45;;;;;;;;;;4964736;29;20034;-83
2023/06/08 04:43:44;;;;;;;7.47;4.75;;;;;;;;;;4981859;28;20031;-83
2023/06/08 04:46:25;;;;;;;6.80;3.85;;;15.60;99.90;;;;;;4981507;28;20059;-81
2023/06/08 04:48:59;;;;;;;5.47;4.97;;;15.60;99.90;;;;;;4979814;28;20094;-81
2023/06/08 04:51:29;;;;;;;5.10;4.45;;;15.70;99.90;;;;;;4982408;29;20011;-82
2023/06/08 04:53:57;;;;;;;6.82;4.75;;;15.60;99.90;;;;;;4980548;29;20063;-82
2023/06/08 04:56:24;;;;;;;6.40;4.15;;;15.60;99.90;;;;;;4971865;28;20346;-85
2023/06/08 04:58:51;;;;;;;5.35;4.57;;;15.60;99.90;;;;;;4972697;28;20039;-82
2023/06/08 05:01:17;;;;;;;7.82;5.30;;;15.60;99.90;;;;;;4970905;29;20020;-83
2023/06/08 05:03:43;;;;;;;4.25;3.50;;;15.60;99.90;;;;;;4963618;29;20019;-86
2023/06/08 05:06:11;;;;;;;5.68;4.38;;;15.70;99.90;;;;;;4968237;28;20015;-81
2023/06/08 05:08:37;;;;;;;4.60;4.03;;;15.70;99.90;;;;;;4979476;28;20027;-83
2023/06/08 05:11:38;;;;;;;4.53;4.03;;;15.80;99.90;;;;;;4982886;28;20030;-83
2023/06/08 05:14:04;;;;;;;6.88;4.57;;;15.80;99.90;;;;;;4980138;28;20055;-84
2023/06/08 05:17:05;;;;;;;7.45;3.78;;;15.80;99.90;;;;;;4982227;28;20011;-80
2023/06/08 05:19:30;;;;;;;5.25;3.97;;;15.90;99.90;;;;;;4981632;28;20012;-82
2023/06/08 05:21:56;;;;;;;5.05;3.67;;;15.80;99.90;;;;;;4961448;28;20035;-83
2023/06/08 05:24:22;;;;;;;10.82;5.47;;;15.90;99.90;;;;;;4960789;29;20074;-86
2023/06/08 05:27:11;;;;;;;7.40;4.75;;;16.00;99.90;;;;;;4969311;28;20023;-83
2023/06/08 05:29:37;;;;;;;;;;;16.20;99.90;;;;;;4980879;28;20039;-83
2023/06/08 05:32:03;;;;;;;4.00;3.65;;;16.30;99.90;;;;;;4973469;29;19906;-83
2023/06/08 05:35:04;;;;;;;6.32;4.63;;;16.40;99.90;;;;;;4975357;29;20015;-83
2023/06/08 05:37:30;;;;;;;7.53;5.28;;;16.50;99.90;;;;;;4981549;28;20047;-83
2023/06/08 05:39:56;;;;;;;5.95;4.50;;;16.60;99.90;;;;;;4982296;28;20030;-83
2023/06/08 05:42:21;;;;;;;7.05;5.47;;;16.60;99.90;;;;;;4972025;28;20035;-84
2023/06/08 05:44:47;;;;;;;8.27;5.32;;;16.60;99.90;;;;;;4963468;28;20086;-84
2023/06/08 05:47:13;;;;;;;5.57;3.97;;;16.70;99.90;;;;;;4964320;28;20039;-84
2023/06/08 05:49:39;;;;;;;7.80;4.72;;;17.00;99.90;;;;;;4950723;28;20046;-81
2023/06/08 05:52:31;;;;;;;6.40;5.10;;;16.90;99.90;;;;;;4980151;28;20023;-83
2023/06/08 05:54:58;;;;;;;8.63;4.75;;;17.10;99.90;;;;;;4963622;28;20059;-84
2023/06/08 06:00:58;;;;;;;8.30;4.85;;;17.20;99.90;;;;;;4974330;28;20358;-83
2023/06/08 06:03:24;;;;;;;5.95;4.70;;;17.10;99.90;;;;;;4964917;28;20042;-86
2023/06/08 06:05:50;;;;;;;9.00;5.28;;;17.20;99.90;;;;;;4970092;28;20015;-81
2023/06/08 06:08:16;;;;;;;7.07;5.30;;;17.40;99.90;;;;;;4963491;28;20019;-82
2023/06/08 06:10:42;;;;;;;9.77;5.85;;;17.40;99.90;;;;;;4974350;28;20059;-83
2023/06/08 06:13:07;;;;;;;7.95;4.93;;;17.50;99.90;;;;;;4946532;28;20453;-86
2023/06/08 06:15:37;;;;;;;6.45;5.10;;;17.70;99.90;;;;;;4965235;28;20015;-82
2023/06/08 06:18:02;;;;;;;6.80;4.97;;;18.00;99.90;;;;;;4949625;28;20054;-85
2023/06/08 06:20:29;;;;;;;7.55;4.93;;;18.20;99.90;;;;;;4961350;28;20039;-82
2023/06/08 06:22:55;;;;;;;7.55;5.47;;;18.70;99.90;;;;;;4961293;28;20035;-87
2023/06/08 06:25:21;;;;;;;6.80;5.45;;;18.80;99.90;;;;;;4964855;28;20200;-83
2023/06/08 06:27:47;;;;;;;8.00;5.20;;;18.80;99.90;;;;;;4962654;29;20023;-83
2023/06/08 06:30:15;;;;;;;7.32;5.30;;;18.80;99.90;;;;;;4962035;28;20038;-83
2023/06/08 06:32:41;;;;;;;7.07;4.75;;;19.00;99.90;;;;;;4960330;28;20031;-81
2023/06/08 06:35:07;;;;;;;8.95;5.35;;;19.10;99.90;;;;;;4961665;28;20130;-83
2023/06/08 06:37:35;;;;;;;6.93;6.10;;;19.10;99.90;;;;;;4961887;28;20283;-84
2023/06/08 06:40:04;;;;;;;9.85;5.78;;;19.70;99.90;;;;;;4961878;29;20066;-84
2023/06/08 06:42:30;;;;;;;5.80;5.20;;;21.00;99.90;;;;;;4962349;28;20031;-82
2023/06/08 06:44:56;;;;;;;5.60;4.75;;;22.50;99.90;;;;;;4962754;28;20094;-81
2023/06/08 06:47:22;;;;;;;6.78;4.43;;;23.40;98.80;;;;;;4963017;28;20034;-80
2023/06/08 06:49:47;;;;;;;4.93;4.45;;;24.40;94.90;;;;;;4961975;28;20035;-81
2023/06/08 06:52:13;;;;;;;5.47;4.65;;;24.90;90.00;;;;;;4963123;28;20387;-79
2023/06/08 06:54:39;;;;;;;4.50;4.10;;;25.20;86.90;;;;;;4962107;28;20054;-81
2023/06/08 06:57:05;;;;;;;10.40;5.43;;;26.10;82.20;;;;;;4962387;28;20102;-80
2023/06/08 06:59:30;;;;;;;6.38;4.45;;;26.20;80.00;;;;;;4961831;29;20287;-80
2023/06/08 07:01:56;;;;;;;8.18;5.70;;;26.70;77.10;;;;;;4962133;29;20031;-79
2023/06/08 07:04:22;;;;;;;4.38;3.97;;;27.00;76.60;;;;;;4962323;28;20019;-79
2023/06/08 07:06:50;;;;;;;7.97;4.13;;;27.10;75.80;;;;;;4960817;28;20038;-79
2023/06/08 07:09:16;;;;;;;4.55;4.15;;;27.20;74.70;;;;;;4958536;29;20032;-79
2023/06/08 07:11:42;;;;;;;4.50;3.70;;;26.20;74.10;;;;;;4961037;29;20023;-78
2023/06/08 07:14:08;;;;;;;6.32;4.22;;;26.10;74.80;;;;;;4954183;28;20535;-78
2023/06/08 07:16:33;;;;;;;6.22;4.22;;;26.10;75.10;;;;;;4952954;29;20051;-82
2023/06/08 07:18:59;;;;;;;7.03;4.47;;;25.90;74.20;;;;;;4952052;28;20034;-81
2023/06/08 07:21:24;;;;;;;6.78;4.55;;;25.90;75.40;;;;;;4953065;28;20023;-80
2023/06/08 07:23:50;;;;;;;9.20;4.07;;;26.40;74.40;;;;;;4951356;29;20026;-79
2023/06/08 07:26:16;;;;;;;8.88;3.95;;;26.60;73.20;;;;;;4952875;28;20051;-81
2023/06/08 07:28:42;;;;;;;6.00;4.07;;;;;;;;;;4952906;29;20035;-85
2023/06/08 07:31:08;;;;;;;4.65;4.10;;;25.30;75.90;;;;;;4950550;29;20239;-84
2023/06/08 07:33:34;;;;;;;10.40;4.07;;;25.20;77.50;;;;;;4949665;29;20194;-79
2023/06/08 07:35:59;;;;;;;5.32;3.90;;;25.70;77.90;;;;;;4949755;28;20027;-80
2023/06/08 07:38:25;;;;;;;3.78;3.33;;;26.00;75.90;;;;;;4949700;29;20025;-80
2023/06/08 07:40:51;;;;;;;5.65;3.65;;;26.30;75.00;;;;;;4949392;28;20023;-79
2023/06/08 07:43:16;;;;;;;5.45;4.03;;;26.50;74.00;;;;;;4949640;28;20404;-79
2023/06/08 07:45:42;;;;;;;4.82;3.63;;;27.00;71.00;;;;;;4950369;29;20042;-81
2023/06/08 07:48:08;;;;;;;5.97;4.00;;;26.50;71.40;;;;;;4951452;29;20126;-80
2023/06/08 07:50:33;;;;;;;7.55;4.65;;;27.20;71.10;;;;;;4951337;29;20031;-79
2023/06/08 07:52:59;;;;;;;8.13;4.80;;;27.00;72.50;;;;;;4951503;28;20498;-83
2023/06/08 07:55:25;;;;;;;6.95;4.28;;;26.10;75.30;;;;;;4947932;29;20056;-83
2023/06/08 07:57:51;;;;;;;5.53;4.90;;;25.00;77.40;;;;;;4946987;28;20020;-83
2023/06/08 08:00:17;;;;;;;8.48;5.75;;;24.50;81.00;;;;;;4948051;28;20436;-84
2023/06/08 08:02:44;;;;;;;7.93;5.93;;;23.80;83.20;;;;;;4953965;28;20023;-83
2023/06/08 08:05:15;;;;;;;5.95;5.25;;;23.60;88.40;;;;;;4958042;29;20011;-83
2023/06/08 08:07:41;;;;;;;7.05;5.70;;;23.50;89.20;;;;;;4945566;29;20055;-83
2023/06/08 08:10:07;;;;;;;9.57;5.85;;;23.90;90.70;;;;;;4932784;29;20348;-83
2023/06/08 08:12:33;;;;;;;10.07;6.05;;;24.00;89.10;;;;;;4947751;28;20027;-83
2023/06/08 08:14:59;;;;;;;7.50;5.40;;;;;;;;;;4947416;28;20030;-83
2023/06/08 08:17:24;;;;;;;6.13;5.32;;;24.00;85.90;;;;;;4947541;28;20023;-82
2023/06/08 08:19:50;;;;;;;7.20;5.90;;;24.60;85.50;;;;;;4947616;28;20035;-82
2023/06/08 08:22:15;;;;;;;8.98;6.78;;;24.80;86.00;;;;;;4947597;29;20066;-84
2023/06/08 08:24:41;;;;;;;7.00;5.68;;;24.40;86.60;;;;;;4947667;29;20028;-85
2023/06/08 08:27:07;;;;;;;9.10;5.50;;;24.10;88.90;;;;;;4947278;29;20020;-84
2023/06/08 08:29:32;;;;;;;6.88;5.35;;;24.20;87.10;;;;;;4947721;29;20397;-82
2023/06/08 08:31:58;;;;;;;9.07;5.40;;;24.60;85.40;;;;;;4947371;28;20027;-82
2023/06/08 08:34:23;;;;;;;8.52;6.05;;;24.90;87.30;;;;;;4945048;29;20056;-82
2023/06/08 08:36:49;;;;;;;9.68;5.88;;;24.70;84.90;;;;;;4944554;29;20392;-85
2023/06/08 08:39:15;;;;;;;7.72;5.55;;;25.00;84.00;;;;;;4930642;29;20028;-83
2023/06/08 08:41:42;;;;;;;6.18;5.57;;;24.80;82.50;;;;;;4944953;28;20024;-82
2023/06/08 08:44:12;;;;;;;6.53;5.28;;;25.10;81.00;;;;;;4930306;29;20107;-82
2023/06/08 08:46:42;;;;;;;7.07;5.95;;;25.00;80.60;;;;;;4929022;29;20063;-82
2023/06/08 08:49:15;;;;;;;9.55;6.25;;;25.00;81.20;;;;;;4945007;29;20099;-81
2023/06/08 08:51:46;;;;;;;7.20;5.05;;;24.90;81.40;;;;;;4944867;29;20051;-82
2023/06/08 08:54:12;;;;;;;6.00;5.32;;;25.50;83.50;;;;;;4945249;28;20491;-83
2023/06/08 08:56:38;;;;;;;7.45;5.13;;;25.60;80.20;;;;;;4946757;28;20050;-80
2023/06/08 08:59:05;;;;;;;8.23;6.05;;;25.50;79.60;;;;;;4949669;29;20078;-84
2023/06/08 09:01:33;;;;;;;10.25;6.22;;;25.20;80.10;;;;;;4950417;29;20436;-82
2023/06/08 09:03:59;;;;;;;6.40;5.20;;;25.20;79.30;;;;;;4950039;29;20087;-82
2023/06/08 09:06:27;;;;;;;7.47;5.30;;;25.60;78.70;;;;;;4949442;29;20118;-83
2023/06/08 09:08:53;;;;;;;8.13;5.30;;;25.60;78.30;;;;;;4950460;28;20400;-84
2023/06/08 09:11:19;;;;;;;5.72;5.13;;;25.60;78.40;;;;;;4934640;29;20856;-82
2023/06/08 09:13:44;;;;;;;6.85;6.05;;;25.60;77.50;;;;;;4933908;29;20035;-81
2023/06/08 09:16:21;;;;;;;8.68;5.50;;;25.60;76.80;;;;;;4950130;28;20030;-81
2023/06/08 09:19:04;;;;;;;7.18;5.55;;;26.00;75.20;;;;;;4934406;29;20024;-80
2023/06/08 09:21:30;;;;;;;9.15;5.40;;;25.70;76.60;;;;;;4934820;29;20035;-83
2023/06/08 09:24:17;;;;;;;9.90;5.85;;;25.60;78.60;;;;;;4935982;29;20075;-82
2023/06/08 09:26:47;;;;;;;5.25;4.63;;;25.50;76.00;;;;;;4938358;29;20078;-80
2023/06/08 09:29:37;;;;;;;7.05;4.88;;;25.60;77.30;;;;;;4932476;29;20035;-80
2023/06/08 09:32:04;;;;;;;6.43;5.20;;;26.10;75.30;;;;;;4932719;29;20020;-75
2023/06/08 09:34:33;;;;;;;6.47;5.28;;;26.60;74.20;;;;;;4931586;29;20594;-77
2023/06/08 09:37:10;;;;;;;8.38;5.00;;;27.00;72.40;;;;;;4930605;29;20536;-76
2023/06/08 09:39:45;;;;;;;6.97;5.43;;;26.80;72.30;;;;;;4932239;29;20036;-76
2023/06/08 09:42:11;;;;;;;8.68;6.25;;;26.50;73.10;;;;;;4932108;29;20075;-76
2023/06/08 09:44:38;;;;;;;6.70;5.55;;;26.40;71.60;;;;;;4932499;29;20386;-77
2023/06/08 09:47:21;;;;;;;12.38;5.38;;;26.40;72.60;;;;;;4933174;29;20087;-76
2023/06/08 09:49:50;;;;;;;5.30;4.80;;;26.20;72.90;;;;;;4934088;29;20043;-75
2023/06/08 09:52:18;;;;;;;5.00;4.50;;;26.50;72.10;;;;;;4932479;29;20226;-73
2023/06/08 09:54:46;;;;;;;6.90;4.75;;;26.80;70.00;;;;;;4940219;29;20045;-73
2023/06/08 09:57:13;;;;;;;5.10;4.70;;;26.90;69.00;;;;;;4952421;28;20031;-75
2023/06/08 09:59:45;;;;;;;6.03;4.80;;;27.00;69.00;;;;;;4953269;29;20020;-73
2023/06/08 10:02:23;;;;;;;6.35;4.80;;;27.50;67.70;;;;;;4952809;29;20156;-74
2023/06/08 10:04:54;;;;;;;10.82;5.55;;;27.50;65.80;;;;;;4952527;29;20034;-74
2023/06/08 10:07:26;;;;;;;6.53;3.72;;;27.70;64.10;;;;;;4952494;28;20020;-77
2023/06/08 10:09:59;;;;;;;5.45;3.80;;;27.60;61.70;;;;;;4951922;29;20109;-76
2023/06/08 10:12:27;;;;;;;8.32;4.10;;;27.50;62.40;;;;;;4952373;28;20377;-77
2023/06/08 10:14:55;;;;;;;5.75;3.60;;;27.70;60.00;;;;;;4952394;29;20106;-74
2023/06/08 10:17:21;;;;;;;3.03;2.53;;;27.90;59.80;;;;;;4952208;29;20027;-74
2023/06/08 10:19:46;;;;;;;6.32;3.08;;;28.30;58.20;;;;;;4952621;29;20030;-75
2023/06/08 10:22:12;;;;;;;3.70;2.90;;;28.40;56.00;;;;;;4951960;29;20400;-75
2023/06/08 10:24:39;;;;;;;3.30;2.28;;;28.20;54.70;;;;;;4952154;29;20271;-73
2023/06/08 10:27:18;;;;;;;3.22;3.00;;;28.50;56.90;;;;;;4951945;29;20446;-75
2023/06/08 10:29:54;;;;;;;3.40;2.50;;;28.60;53.40;;;;;;4952317;29;20436;-74
2023/06/08 10:32:28;;;;;;;5.20;2.85;;;28.30;52.90;;;;;;4952351;29;20030;-73
2023/06/08 10:34:57;;;;;;;6.05;2.95;;;29.00;53.30;;;;;;4934378;29;20035;-75
2023/06/08 10:37:28;;;;;;;6.88;2.78;;;28.70;54.80;;;;;;4951824;29;20022;-74
2023/06/08 10:39:54;;;;;;;2.97;2.70;;;28.70;53.60;;;;;;4951774;29;20372;-74
2023/06/08 10:42:20;;;;;;;3.88;2.80;;;28.70;53.90;;;;;;4951650;29;20019;-74
2023/06/08 10:45:05;;;;;;;6.95;3.20;;;29.00;52.50;;;;;;4951701;29;20035;-74
2023/06/08 10:47:37;;;;;;;3.75;3.20;;;29.10;54.20;;;;;;4951321;29;20034;-76
2023/06/08 10:50:05;;;;;;;3.67;3.30;;;29.90;52.70;;;;;;4951707;29;20063;-76
2023/06/08 10:52:45;;;;;;;3.42;3.13;;;29.90;53.30;;;;;;4951536;29;20027;-73
2023/06/08 10:55:12;;;;;;;3.65;3.05;;;29.70;52.30;;;;;;4930595;29;20373;-73
2023/06/08 10:57:38;;;;;;;5.20;3.25;;;29.60;51.00;;;;;;4932424;29;20183;-74
2023/06/08 11:00:26;;;;;;;3.80;2.70;;;29.40;52.80;;;;;;4947128;29;20500;-74
2023/06/08 11:03:05;;;;;;;4.07;2.60;;;29.80;51.80;;;;;;4947205;29;20028;-75
2023/06/08 11:05:35;;;;;;;2.33;2.10;;;29.50;50.40;;;;;;4930497;29;20499;-75
2023/06/08 11:08:01;;;;;;;4.82;2.78;;;30.30;50.90;;;;;;4932010;29;20038;-74
2023/06/08 11:10:30;;;;;;;3.42;3.13;;;30.30;49.40;;;;;;4933118;29;20501;-75
2023/06/08 11:13:04;;;;;;;2.88;2.67;;;30.00;47.90;;;;;;4933205;29;20055;-74
2023/06/08 11:15:31;;;;;;;3.53;2.70;;;30.10;49.10;;;;;;4932189;29;20477;-74
2023/06/08 11:17:57;;;;;;;2.92;2.72;;;30.00;48.50;;;;;;4931748;29;20059;-74
2023/06/08 11:20:26;;;;;;;2.60;2.38;;;30.00;48.10;;;;;;4931695;29;20020;-74
2023/06/08 11:22:53;;;;;;;6.32;2.75;;;29.90;50.40;;;;;;4932043;29;20070;-75
2023/06/08 11:25:22;;;;;;;2.90;2.60;;;32.20;50.40;;;;;;4930095;29;20024;-75
2023/06/08 11:27:52;;;;;;;2.90;2.58;;;30.30;48.80;;;;;;4930700;29;20064;-76
2023/06/08 11:30:20;;;;;;;5.40;2.42;;;30.60;47.10;;;;;;4931264;29;20031;-75
2023/06/08 11:32:51;;;;;;;3.47;2.50;;;30.90;47.00;;;;;;4931447;29;20401;-76
2023/06/08 11:35:18;;;;;;;2.70;2.50;;;31.10;45.00;;;;;;4930945;29;20028;-75
2023/06/08 11:37:44;;;;;;;2.88;2.65;;;30.70;46.90;;;;;;4931125;29;20046;-75
2023/06/08 11:40:14;;;;;;;4.70;3.22;;;31.00;46.30;;;;;;4930656;29;20558;-75
2023/06/08 11:42:42;;;;;;;2.35;2.25;;;31.30;46.80;;;;;;4945400;29;20084;-74
2023/06/08 11:45:10;;;;;;;3.13;2.50;;;31.50;44.60;;;;;;4931668;29;20119;-74
2023/06/08 11:47:36;;;;;;;5.20;2.95;;;31.60;44.20;;;;;;4931058;29;20512;-75
2023/06/08 11:50:07;;;;;;;7.28;2.72;;;32.00;44.20;;;;;;4931033;29;20043;-76
2023/06/08 11:52:34;;;;;;;3.03;2.80;;;31.20;46.50;;;;;;4931550;29;20634;-74
2023/06/08 11:55:04;;;;;;;3.30;2.60;;;31.00;47.80;;;;;;4945489;29;20056;-74
2023/06/08 11:57:54;;;;;;;3.72;2.63;;;31.60;46.60;;;;;;4931882;29;20365;-76
2023/06/08 12:00:23;;;;;;;2.83;2.63;;;30.90;47.00;;;;;;4931414;29;20027;-75
2023/06/08 12:02:50;;;;;;;8.77;2.50;;;31.90;45.30;;;;;;4931465;29;20504;-76
2023/06/08 12:05:17;;;;;;;2.53;2.33;;;31.40;43.50;;;;;;4931605;29;20024;-77
2023/06/08 12:08:03;;;;;;;5.78;2.85;;;31.10;44.50;;;;;;4946494;29;20024;-77
2023/06/08 12:10:41;;;;;;;5.70;3.05;;;31.30;44.00;;;;;;4945953;29;20039;-79
2023/06/08 12:13:11;;;;;;;3.20;2.90;;;31.40;44.50;;;;;;4946225;29;20386;-77
2023/06/08 12:15:45;;;;;;;5.93;2.70;;;31.60;44.80;;;;;;4946000;29;20024;-76
2023/06/08 12:18:12;;;;;;;3.10;2.78;;;32.20;45.50;;;;;;4946184;28;20441;-76
2023/06/08 12:20:40;;;;;;;4.20;2.60;;;32.10;43.80;;;;;;4931312;29;20021;-76
2023/06/08 12:23:06;;;;;;;2.90;2.50;;;32.30;43.60;;;;;;4946270;29;20028;-80
2023/06/08 12:25:32;;;;;;;3.15;2.47;;;32.10;43.70;;;;;;4945802;29;20376;-75
2023/06/08 12:27:59;;;;;;;4.95;3.25;;;31.40;43.80;;;;;;4931806;29;20066;-76
2023/06/08 12:30:28;;;;;;;3.13;2.88;;;30.70;45.10;;;;;;4928730;29;20150;-80
2023/06/08 12:32:55;;;;;;;2.25;2.05;;;31.00;45.80;;;;;;4931921;29;20067;-76
2023/06/08 12:35:21;;;;;;;3.22;2.63;;;32.20;43.20;;;;;;4931224;29;20043;-77
2023/06/08 12:37:50;;;;;;;2.88;2.67;;;32.40;43.30;;;;;;4932813;29;20027;-78
2023/06/08 12:40:17;;;;;;;4.50;2.92;;;33.10;43.20;;;;;;4932702;29;20083;-76
2023/06/08 12:42:48;;;;;;;3.40;2.80;;;33.60;43.30;;;;;;4933412;29;20031;-78
2023/06/08 12:45:18;;;;;;;2.65;2.45;;;33.00;43.90;;;;;;4947757;28;20288;-76
2023/06/08 12:47:45;;;;;;;2.88;2.53;;;32.40;44.20;;;;;;4931477;29;20503;-77
2023/06/08 12:50:12;;;;;;;3.47;2.65;;;31.90;43.90;;;;;;4931271;29;20043;-77
2023/06/08 12:52:37;;;;;;;2.67;2.47;;;31.60;45.50;;;;;;4931733;29;20076;-76
2023/06/08 12:55:05;;;;;;;4.53;2.90;;;32.00;45.60;;;;;;4930508;29;20059;-78
2023/06/08 12:57:31;;;;;;;4.50;3.13;;;32.10;43.70;;;;;;4933157;29;20125;-77
2023/06/08 12:59:56;;;;;;;9.13;2.67;;;32.30;43.80;;;;;;4947695;29;20024;-80
2023/06/08 13:02:24;;;;;;;5.72;2.55;;;32.80;43.50;;;;;;4933074;29;20127;-76
2023/06/08 13:04:50;;;;;;;3.20;2.45;;;32.90;44.10;;;;;;4948983;28;20075;-78